sensor_id;sensor_type;location;lat;lon;timestamp;P1;durP1;ratioP1;P2;durP2;ratioP2
78648;SDS011;67962;47.310;9.642;2023-02-28T00:01:21;9.40;;;5.32;;
78648;SDS011;67962;47.310;9.642;2023-02-28T00:03:47;8.88;;;5.30;;
78648;SDS011;67962;47.310;9.642;2023-02-28T00:06:13;8.07;;;5.47;;
78648;SDS011;67962;47.310;9.642;2023-02-28T00:08:38;7.30;;;5.10;;
78648;SDS011;67962;47.310;9.642;2023-02-28T00:11:06;6.00;;;4.55;;
78648;SDS011;67962;47.310;9.642;2023-02-28T00:16:32;7.90;;;5.10;;
78648;SDS011;67962;47.310;9.642;2023-02-28T00:18:57;8.55;;;5.00;;
78648;SDS011;67962;47.310;9.642;2023-02-28T00:21:23;7.43;;;5.20;;
78648;SDS011;67962;47.310;9.642;2023-02-28T00:23:49;10.73;;;5.60;;
78648;SDS011;67962;47.310;9.642;2023-02-28T00:26:14;8.48;;;5.40;;
78648;SDS011;67962;47.310;9.642;2023-02-28T00:28:40;8.38;;;5.50;;
78648;SDS011;67962;47.310;9.642;2023-02-28T00:31:06;7.18;;;5.95;;
78648;SDS011;67962;47.310;9.642;2023-02-28T00:33:31;7.90;;;5.80;;
78648;SDS011;67962;47.310;9.642;2023-02-28T00:36:01;9.85;;;5.93;;
78648;SDS011;67962;47.310;9.642;2023-02-28T00:38:28;9.30;;;6.18;;
78648;SDS011;67962;47.310;9.642;2023-02-28T00:40:54;8.40;;;5.72;;
78648;SDS011;67962;47.310;9.642;2023-02-28T00:43:20;7.18;;;5.38;;
78648;SDS011;67962;47.310;9.642;2023-02-28T00:45:45;10.40;;;5.95;;
78648;SDS011;67962;47.310;9.642;2023-02-28T00:48:11;8.75;;;5.78;;
78648;SDS011;67962;47.310;9.642;2023-02-28T00:50:37;7.50;;;5.53;;
78648;SDS011;67962;47.310;9.642;2023-02-28T00:53:03;7.28;;;5.63;;
78648;SDS011;67962;47.310;9.642;2023-02-28T00:55:28;9.23;;;5.50;;
78648;SDS011;67962;47.310;9.642;2023-02-28T00:57:54;8.05;;;5.65;;
78648;SDS011;67962;47.310;9.642;2023-02-28T01:00:20;7.95;;;5.57;;
78648;SDS011;67962;47.310;9.642;2023-02-28T01:02:45;8.15;;;5.72;;
78648;SDS011;67962;47.310;9.642;2023-02-28T01:05:11;8.68;;;5.80;;
78648;SDS011;67962;47.310;9.642;2023-02-28T01:07:37;9.32;;;6.20;;
78648;SDS011;67962;47.310;9.642;2023-02-28T01:10:03;9.43;;;6.45;;
78648;SDS011;67962;47.310;9.642;2023-02-28T01:12:29;10.35;;;5.78;;
78648;SDS011;67962;47.310;9.642;2023-02-28T01:14:55;8.57;;;5.55;;
78648;SDS011;67962;47.310;9.642;2023-02-28T01:21:22;9.05;;;5.68;;
78648;SDS011;67962;47.310;9.642;2023-02-28T01:23:51;8.30;;;5.85;;
78648;SDS011;67962;47.310;9.642;2023-02-28T01:26:21;9.05;;;6.40;;
78648;SDS011;67962;47.310;9.642;2023-02-28T01:28:48;12.77;;;7.20;;
78648;SDS011;67962;47.310;9.642;2023-02-28T01:31:15;14.05;;;7.35;;
78648;SDS011;67962;47.310;9.642;2023-02-28T01:33:43;9.63;;;6.63;;
78648;SDS011;67962;47.310;9.642;2023-02-28T01:36:11;10.02;;;6.78;;
78648;SDS011;67962;47.310;9.642;2023-02-28T01:38:38;10.60;;;7.03;;
78648;SDS011;67962;47.310;9.642;2023-02-28T01:41:04;7.90;;;6.07;;
78648;SDS011;67962;47.310;9.642;2023-02-28T01:43:53;9.95;;;6.70;;
78648;SDS011;67962;47.310;9.642;2023-02-28T01:46:18;10.57;;;7.10;;
78648;SDS011;67962;47.310;9.642;2023-02-28T01:48:48;10.88;;;6.60;;
78648;SDS011;67962;47.310;9.642;2023-02-28T01:51:20;10.30;;;6.97;;
78648;SDS011;67962;47.310;9.642;2023-02-28T01:53:51;10.77;;;7.15;;
78648;SDS011;67962;47.310;9.642;2023-02-28T01:56:22;9.07;;;6.82;;
78648;SDS011;67962;47.310;9.642;2023-02-28T01:58:51;10.00;;;7.07;;
78648;SDS011;67962;47.310;9.642;2023-02-28T02:01:19;10.02;;;7.45;;
78648;SDS011;67962;47.310;9.642;2023-02-28T02:03:48;12.45;;;7.03;;
78648;SDS011;67962;47.310;9.642;2023-02-28T02:06:22;9.25;;;6.82;;
78648;SDS011;67962;47.310;9.642;2023-02-28T02:08:58;12.07;;;7.43;;
78648;SDS011;67962;47.310;9.642;2023-02-28T02:11:24;8.57;;;6.85;;
78648;SDS011;67962;47.310;9.642;2023-02-28T02:13:54;9.95;;;6.93;;
78648;SDS011;67962;47.310;9.642;2023-02-28T02:22:33;11.13;;;7.53;;
78648;SDS011;67962;47.310;9.642;2023-02-28T02:36:16;10.18;;;7.53;;
78648;SDS011;67962;47.310;9.642;2023-02-28T02:39:24;8.85;;;6.72;;
78648;SDS011;67962;47.310;9.642;2023-02-28T02:41:52;12.05;;;7.43;;
78648;SDS011;67962;47.310;9.642;2023-02-28T02:47:04;9.65;;;7.25;;
78648;SDS011;67962;47.310;9.642;2023-02-28T02:49:43;9.68;;;6.93;;
78648;SDS011;67962;47.310;9.642;2023-02-28T02:52:14;12.35;;;7.38;;
78648;SDS011;67962;47.310;9.642;2023-02-28T02:54:46;11.27;;;7.10;;
78648;SDS011;67962;47.310;9.642;2023-02-28T02:57:17;10.90;;;8.00;;
78648;SDS011;67962;47.310;9.642;2023-02-28T02:59:52;9.82;;;7.60;;
78648;SDS011;67962;47.310;9.642;2023-02-28T03:02:21;12.45;;;9.10;;
78648;SDS011;67962;47.310;9.642;2023-02-28T03:04:50;11.48;;;7.45;;
78648;SDS011;67962;47.310;9.642;2023-02-28T03:07:18;13.65;;;8.25;;
78648;SDS011;67962;47.310;9.642;2023-02-28T03:09:54;11.82;;;8.15;;
78648;SDS011;67962;47.310;9.642;2023-02-28T03:12:57;12.10;;;7.47;;
78648;SDS011;67962;47.310;9.642;2023-02-28T03:15:22;10.60;;;7.85;;
78648;SDS011;67962;47.310;9.642;2023-02-28T03:18:02;10.48;;;7.47;;
78648;SDS011;67962;47.310;9.642;2023-02-28T03:21:27;10.88;;;7.97;;
78648;SDS011;67962;47.310;9.642;2023-02-28T03:24:03;11.13;;;7.97;;
78648;SDS011;67962;47.310;9.642;2023-02-28T03:26:45;11.68;;;7.60;;
78648;SDS011;67962;47.310;9.642;2023-02-28T03:32:06;10.65;;;8.00;;
78648;SDS011;67962;47.310;9.642;2023-02-28T03:34:39;12.55;;;8.00;;
78648;SDS011;67962;47.310;9.642;2023-02-28T03:37:12;12.18;;;8.50;;
78648;SDS011;67962;47.310;9.642;2023-02-28T03:39:44;12.70;;;8.18;;
78648;SDS011;67962;47.310;9.642;2023-02-28T03:42:19;18.58;;;9.45;;
78648;SDS011;67962;47.310;9.642;2023-02-28T03:45:32;11.52;;;7.90;;
78648;SDS011;67962;47.310;9.642;2023-02-28T03:47:55;11.27;;;8.18;;
78648;SDS011;67962;47.310;9.642;2023-02-28T03:50:38;11.32;;;8.48;;
78648;SDS011;67962;47.310;9.642;2023-02-28T03:55:40;11.77;;;8.27;;
78648;SDS011;67962;47.310;9.642;2023-02-28T03:58:27;12.10;;;8.63;;
78648;SDS011;67962;47.310;9.642;2023-02-28T04:01:15;11.60;;;8.32;;
78648;SDS011;67962;47.310;9.642;2023-02-28T04:03:49;11.63;;;7.65;;
78648;SDS011;67962;47.310;9.642;2023-02-28T04:06:16;10.13;;;7.50;;
78648;SDS011;67962;47.310;9.642;2023-02-28T04:08:44;11.32;;;8.00;;
78648;SDS011;67962;47.310;9.642;2023-02-28T04:11:21;10.63;;;8.20;;
78648;SDS011;67962;47.310;9.642;2023-02-28T04:13:50;15.57;;;8.63;;
78648;SDS011;67962;47.310;9.642;2023-02-28T04:16:16;12.32;;;8.95;;
78648;SDS011;67962;47.310;9.642;2023-02-28T04:18:42;12.82;;;8.48;;
78648;SDS011;67962;47.310;9.642;2023-02-28T04:21:08;12.07;;;8.70;;
78648;SDS011;67962;47.310;9.642;2023-02-28T04:23:34;11.43;;;8.13;;
78648;SDS011;67962;47.310;9.642;2023-02-28T04:26:00;12.02;;;8.20;;
78648;SDS011;67962;47.310;9.642;2023-02-28T04:28:26;13.18;;;8.45;;
78648;SDS011;67962;47.310;9.642;2023-02-28T04:30:56;11.60;;;8.35;;
78648;SDS011;67962;47.310;9.642;2023-02-28T04:33:22;11.23;;;8.52;;
78648;SDS011;67962;47.310;9.642;2023-02-28T04:35:50;11.75;;;8.55;;
78648;SDS011;67962;47.310;9.642;2023-02-28T04:38:34;13.85;;;8.43;;
78648;SDS011;67962;47.310;9.642;2023-02-28T04:41:01;11.90;;;7.95;;
78648;SDS011;67962;47.310;9.642;2023-02-28T04:43:27;11.93;;;8.27;;
78648;SDS011;67962;47.310;9.642;2023-02-28T04:45:54;13.57;;;9.00;;
78648;SDS011;67962;47.310;9.642;2023-02-28T04:48:25;13.43;;;8.77;;
78648;SDS011;67962;47.310;9.642;2023-02-28T04:50:52;12.73;;;8.23;;
78648;SDS011;67962;47.310;9.642;2023-02-28T04:53:19;13.82;;;8.63;;
78648;SDS011;67962;47.310;9.642;2023-02-28T04:55:45;11.52;;;7.80;;
78648;SDS011;67962;47.310;9.642;2023-02-28T04:58:11;13.57;;;8.93;;
78648;SDS011;67962;47.310;9.642;2023-02-28T05:00:41;11.50;;;8.15;;
78648;SDS011;67962;47.310;9.642;2023-02-28T05:03:07;11.43;;;8.45;;
78648;SDS011;67962;47.310;9.642;2023-02-28T05:05:32;13.52;;;9.05;;
78648;SDS011;67962;47.310;9.642;2023-02-28T05:07:58;12.52;;;8.98;;
78648;SDS011;67962;47.310;9.642;2023-02-28T05:10:24;14.93;;;9.52;;
78648;SDS011;67962;47.310;9.642;2023-02-28T05:12:50;14.35;;;9.07;;
78648;SDS011;67962;47.310;9.642;2023-02-28T05:15:16;12.95;;;9.00;;
78648;SDS011;67962;47.310;9.642;2023-02-28T05:17:43;15.77;;;9.38;;
78648;SDS011;67962;47.310;9.642;2023-02-28T05:20:09;15.35;;;9.88;;
78648;SDS011;67962;47.310;9.642;2023-02-28T05:22:39;16.42;;;10.48;;
78648;SDS011;67962;47.310;9.642;2023-02-28T05:25:05;23.08;;;12.93;;
78648;SDS011;67962;47.310;9.642;2023-02-28T05:27:32;14.57;;;10.13;;
78648;SDS011;67962;47.310;9.642;2023-02-28T05:29:58;12.68;;;8.80;;
78648;SDS011;67962;47.310;9.642;2023-02-28T05:32:24;13.52;;;8.18;;
78648;SDS011;67962;47.310;9.642;2023-02-28T05:34:50;13.20;;;8.48;;
78648;SDS011;67962;47.310;9.642;2023-02-28T05:37:16;12.55;;;8.65;;
78648;SDS011;67962;47.310;9.642;2023-02-28T05:39:42;12.80;;;8.57;;
78648;SDS011;67962;47.310;9.642;2023-02-28T05:42:07;11.48;;;8.00;;
78648;SDS011;67962;47.310;9.642;2023-02-28T05:44:34;12.82;;;8.52;;
78648;SDS011;67962;47.310;9.642;2023-02-28T05:47:00;14.98;;;8.50;;
78648;SDS011;67962;47.310;9.642;2023-02-28T05:49:26;11.90;;;8.57;;
78648;SDS011;67962;47.310;9.642;2023-02-28T05:51:51;12.40;;;9.00;;
78648;SDS011;67962;47.310;9.642;2023-02-28T05:54:17;14.43;;;8.57;;
78648;SDS011;67962;47.310;9.642;2023-02-28T05:56:43;13.43;;;9.30;;
78648;SDS011;67962;47.310;9.642;2023-02-28T05:59:09;13.23;;;9.30;;
78648;SDS011;67962;47.310;9.642;2023-02-28T06:01:45;17.08;;;10.25;;
78648;SDS011;67962;47.310;9.642;2023-02-28T06:04:13;18.35;;;10.73;;
78648;SDS011;67962;47.310;9.642;2023-02-28T06:06:43;18.25;;;10.30;;
78648;SDS011;67962;47.310;9.642;2023-02-28T06:09:10;17.70;;;10.57;;
78648;SDS011;67962;47.310;9.642;2023-02-28T06:11:35;19.63;;;12.40;;
78648;SDS011;67962;47.310;9.642;2023-02-28T06:14:02;18.33;;;11.18;;
78648;SDS011;67962;47.310;9.642;2023-02-28T06:16:29;18.50;;;10.40;;
78648;SDS011;67962;47.310;9.642;2023-02-28T06:18:59;17.17;;;10.60;;
78648;SDS011;67962;47.310;9.642;2023-02-28T06:21:27;17.52;;;11.07;;
78648;SDS011;67962;47.310;9.642;2023-02-28T06:23:54;16.50;;;10.55;;
78648;SDS011;67962;47.310;9.642;2023-02-28T06:26:20;17.20;;;10.68;;
78648;SDS011;67962;47.310;9.642;2023-02-28T06:28:46;16.38;;;9.40;;
78648;SDS011;67962;47.310;9.642;2023-02-28T06:31:14;12.65;;;8.25;;
78648;SDS011;67962;47.310;9.642;2023-02-28T06:33:41;11.73;;;8.55;;
78648;SDS011;67962;47.310;9.642;2023-02-28T06:36:08;12.30;;;7.88;;
78648;SDS011;67962;47.310;9.642;2023-02-28T06:38:36;19.58;;;8.60;;
78648;SDS011;67962;47.310;9.642;2023-02-28T06:41:02;11.07;;;7.63;;
78648;SDS011;67962;47.310;9.642;2023-02-28T06:43:30;14.00;;;7.85;;
78648;SDS011;67962;47.310;9.642;2023-02-28T06:45:59;11.48;;;7.90;;
78648;SDS011;67962;47.310;9.642;2023-02-28T06:48:26;14.32;;;8.38;;
78648;SDS011;67962;47.310;9.642;2023-02-28T06:51:00;13.35;;;7.97;;
78648;SDS011;67962;47.310;9.642;2023-02-28T06:53:36;14.60;;;8.10;;
78648;SDS011;67962;47.310;9.642;2023-02-28T06:56:04;13.48;;;8.00;;
78648;SDS011;67962;47.310;9.642;2023-02-28T06:58:31;12.00;;;8.27;;
78648;SDS011;67962;47.310;9.642;2023-02-28T07:00:57;13.95;;;8.02;;
78648;SDS011;67962;47.310;9.642;2023-02-28T07:03:23;12.13;;;8.07;;
78648;SDS011;67962;47.310;9.642;2023-02-28T07:05:48;10.95;;;7.68;;
78648;SDS011;67962;47.310;9.642;2023-02-28T07:08:14;11.25;;;7.57;;
78648;SDS011;67962;47.310;9.642;2023-02-28T07:10:40;14.30;;;8.38;;
78648;SDS011;67962;47.310;9.642;2023-02-28T07:13:06;13.20;;;7.90;;
78648;SDS011;67962;47.310;9.642;2023-02-28T07:15:33;10.63;;;7.63;;
78648;SDS011;67962;47.310;9.642;2023-02-28T07:18:00;11.35;;;7.82;;
78648;SDS011;67962;47.310;9.642;2023-02-28T07:20:26;11.25;;;7.18;;
78648;SDS011;67962;47.310;9.642;2023-02-28T07:22:51;11.52;;;8.10;;
78648;SDS011;67962;47.310;9.642;2023-02-28T07:25:30;10.00;;;7.32;;
78648;SDS011;67962;47.310;9.642;2023-02-28T07:27:55;10.38;;;6.93;;
78648;SDS011;67962;47.310;9.642;2023-02-28T07:30:22;10.20;;;7.90;;
78648;SDS011;67962;47.310;9.642;2023-02-28T07:32:47;9.93;;;6.90;;
78648;SDS011;67962;47.310;9.642;2023-02-28T07:35:13;9.77;;;7.22;;
78648;SDS011;67962;47.310;9.642;2023-02-28T07:37:40;9.48;;;7.03;;
78648;SDS011;67962;47.310;9.642;2023-02-28T07:40:07;9.15;;;7.07;;
78648;SDS011;67962;47.310;9.642;2023-02-28T07:42:39;11.90;;;7.95;;
78648;SDS011;67962;47.310;9.642;2023-02-28T07:45:06;10.43;;;7.45;;
78648;SDS011;67962;47.310;9.642;2023-02-28T07:47:33;8.98;;;6.85;;
78648;SDS011;67962;47.310;9.642;2023-02-28T07:49:59;10.68;;;7.57;;
78648;SDS011;67962;47.310;9.642;2023-02-28T07:52:25;9.20;;;7.60;;
78648;SDS011;67962;47.310;9.642;2023-02-28T07:54:51;11.52;;;7.47;;
78648;SDS011;67962;47.310;9.642;2023-02-28T07:57:17;11.55;;;7.65;;
78648;SDS011;67962;47.310;9.642;2023-02-28T07:59:43;14.50;;;8.27;;
78648;SDS011;67962;47.310;9.642;2023-02-28T08:02:15;12.23;;;7.93;;
78648;SDS011;67962;47.310;9.642;2023-02-28T08:04:42;10.57;;;8.10;;
78648;SDS011;67962;47.310;9.642;2023-02-28T08:07:07;12.38;;;8.07;;
78648;SDS011;67962;47.310;9.642;2023-02-28T08:09:34;10.07;;;7.65;;
78648;SDS011;67962;47.310;9.642;2023-02-28T08:12:00;12.48;;;8.50;;
78648;SDS011;67962;47.310;9.642;2023-02-28T08:14:26;12.20;;;8.50;;
78648;SDS011;67962;47.310;9.642;2023-02-28T08:16:52;12.05;;;8.05;;
78648;SDS011;67962;47.310;9.642;2023-02-28T08:19:17;11.90;;;7.45;;
78648;SDS011;67962;47.310;9.642;2023-02-28T08:21:43;10.80;;;7.55;;
78648;SDS011;67962;47.310;9.642;2023-02-28T08:24:09;17.20;;;8.27;;
78648;SDS011;67962;47.310;9.642;2023-02-28T08:26:34;11.80;;;8.07;;
78648;SDS011;67962;47.310;9.642;2023-02-28T08:29:00;9.80;;;7.28;;
78648;SDS011;67962;47.310;9.642;2023-02-28T08:31:26;13.45;;;7.93;;
78648;SDS011;67962;47.310;9.642;2023-02-28T08:33:51;11.70;;;7.97;;
78648;SDS011;67962;47.310;9.642;2023-02-28T08:36:18;12.77;;;8.82;;
78648;SDS011;67962;47.310;9.642;2023-02-28T08:38:44;15.48;;;8.45;;
78648;SDS011;67962;47.310;9.642;2023-02-28T08:41:11;13.05;;;8.85;;
78648;SDS011;67962;47.310;9.642;2023-02-28T08:43:38;12.50;;;8.50;;
78648;SDS011;67962;47.310;9.642;2023-02-28T08:46:04;12.98;;;8.60;;
78648;SDS011;67962;47.310;9.642;2023-02-28T08:48:32;10.63;;;7.88;;
78648;SDS011;67962;47.310;9.642;2023-02-28T08:51:00;11.73;;;8.65;;
78648;SDS011;67962;47.310;9.642;2023-02-28T08:53:27;13.38;;;8.85;;
78648;SDS011;67962;47.310;9.642;2023-02-28T08:56:00;16.73;;;9.18;;
78648;SDS011;67962;47.310;9.642;2023-02-28T08:58:45;16.85;;;9.10;;
78648;SDS011;67962;47.310;9.642;2023-02-28T09:01:14;12.02;;;8.82;;
78648;SDS011;67962;47.310;9.642;2023-02-28T09:03:41;14.18;;;8.70;;
78648;SDS011;67962;47.310;9.642;2023-02-28T09:06:08;14.32;;;8.73;;
78648;SDS011;67962;47.310;9.642;2023-02-28T09:08:35;13.45;;;8.82;;
78648;SDS011;67962;47.310;9.642;2023-02-28T09:11:01;12.85;;;8.85;;
78648;SDS011;67962;47.310;9.642;2023-02-28T09:13:28;13.13;;;9.73;;
78648;SDS011;67962;47.310;9.642;2023-02-28T09:15:57;14.10;;;8.63;;
78648;SDS011;67962;47.310;9.642;2023-02-28T09:18:23;12.38;;;9.07;;
78648;SDS011;67962;47.310;9.642;2023-02-28T09:20:49;18.77;;;9.93;;
78648;SDS011;67962;47.310;9.642;2023-02-28T09:23:15;20.08;;;12.23;;
78648;SDS011;67962;47.310;9.642;2023-02-28T09:25:47;20.88;;;10.85;;
78648;SDS011;67962;47.310;9.642;2023-02-28T09:28:15;13.68;;;9.70;;
78648;SDS011;67962;47.310;9.642;2023-02-28T09:30:42;13.07;;;9.65;;
78648;SDS011;67962;47.310;9.642;2023-02-28T09:33:10;12.82;;;9.57;;
78648;SDS011;67962;47.310;9.642;2023-02-28T09:35:36;19.27;;;9.90;;
78648;SDS011;67962;47.310;9.642;2023-02-28T09:38:02;11.88;;;8.75;;
78648;SDS011;67962;47.310;9.642;2023-02-28T09:40:29;12.55;;;9.38;;
78648;SDS011;67962;47.310;9.642;2023-02-28T09:42:56;15.13;;;9.80;;
78648;SDS011;67962;47.310;9.642;2023-02-28T09:45:35;12.23;;;8.77;;
78648;SDS011;67962;47.310;9.642;2023-02-28T09:48:10;11.68;;;8.95;;
78648;SDS011;67962;47.310;9.642;2023-02-28T09:50:41;11.80;;;8.57;;
78648;SDS011;67962;47.310;9.642;2023-02-28T09:53:20;12.90;;;9.25;;
78648;SDS011;67962;47.310;9.642;2023-02-28T09:55:59;12.43;;;8.82;;
78648;SDS011;67962;47.310;9.642;2023-02-28T10:03:58;11.05;;;8.18;;
78648;SDS011;67962;47.310;9.642;2023-02-28T10:06:49;11.20;;;8.20;;
78648;SDS011;67962;47.310;9.642;2023-02-28T10:09:25;10.73;;;8.55;;
78648;SDS011;67962;47.310;9.642;2023-02-28T10:11:56;11.27;;;8.35;;
78648;SDS011;67962;47.310;9.642;2023-02-28T10:14:29;13.40;;;8.88;;
78648;SDS011;67962;47.310;9.642;2023-02-28T10:17:42;13.05;;;9.05;;
78648;SDS011;67962;47.310;9.642;2023-02-28T10:19:52;12.80;;;8.50;;
78648;SDS011;67962;47.310;9.642;2023-02-28T10:22:39;12.48;;;8.95;;
78648;SDS011;67962;47.310;9.642;2023-02-28T10:25:15;13.27;;;9.65;;
78648;SDS011;67962;47.310;9.642;2023-02-28T10:27:43;11.52;;;9.15;;
78648;SDS011;67962;47.310;9.642;2023-02-28T10:30:09;12.02;;;9.07;;
78648;SDS011;67962;47.310;9.642;2023-02-28T10:32:38;13.45;;;8.55;;
78648;SDS011;67962;47.310;9.642;2023-02-28T10:35:15;11.55;;;8.98;;
78648;SDS011;67962;47.310;9.642;2023-02-28T10:37:58;11.27;;;8.98;;
78648;SDS011;67962;47.310;9.642;2023-02-28T10:40:32;12.25;;;9.05;;
78648;SDS011;67962;47.310;9.642;2023-02-28T10:45:38;13.38;;;9.30;;
78648;SDS011;67962;47.310;9.642;2023-02-28T10:50:51;13.20;;;8.65;;
78648;SDS011;67962;47.310;9.642;2023-02-28T11:01:14;12.63;;;8.73;;
78648;SDS011;67962;47.310;9.642;2023-02-28T11:04:01;11.38;;;9.13;;
78648;SDS011;67962;47.310;9.642;2023-02-28T11:06:31;13.00;;;10.10;;
78648;SDS011;67962;47.310;9.642;2023-02-28T11:09:03;13.90;;;9.65;;
78648;SDS011;67962;47.310;9.642;2023-02-28T11:11:41;11.07;;;8.70;;
78648;SDS011;67962;47.310;9.642;2023-02-28T11:14:17;12.70;;;9.25;;
78648;SDS011;67962;47.310;9.642;2023-02-28T11:16:52;12.40;;;8.85;;
78648;SDS011;67962;47.310;9.642;2023-02-28T11:19:25;12.38;;;9.18;;
78648;SDS011;67962;47.310;9.642;2023-02-28T11:21:58;15.70;;;9.10;;
78648;SDS011;67962;47.310;9.642;2023-02-28T11:24:45;12.20;;;8.93;;
78648;SDS011;67962;47.310;9.642;2023-02-28T11:33:56;14.35;;;9.77;;
78648;SDS011;67962;47.310;9.642;2023-02-28T11:36:29;11.95;;;9.23;;
78648;SDS011;67962;47.310;9.642;2023-02-28T11:38:58;11.57;;;9.57;;
78648;SDS011;67962;47.310;9.642;2023-02-28T11:44:18;13.57;;;9.75;;
78648;SDS011;67962;47.310;9.642;2023-02-28T11:46:53;11.57;;;9.30;;
78648;SDS011;67962;47.310;9.642;2023-02-28T11:57:00;13.68;;;9.85;;
78648;SDS011;67962;47.310;9.642;2023-02-28T12:05:31;14.45;;;11.15;;
78648;SDS011;67962;47.310;9.642;2023-02-28T12:08:23;12.70;;;10.38;;
78648;SDS011;67962;47.310;9.642;2023-02-28T12:13:39;14.57;;;10.70;;
78648;SDS011;67962;47.310;9.642;2023-02-28T12:16:27;15.00;;;10.00;;
78648;SDS011;67962;47.310;9.642;2023-02-28T12:19:18;11.48;;;9.25;;
78648;SDS011;67962;47.310;9.642;2023-02-28T12:22:15;15.73;;;10.75;;
78648;SDS011;67962;47.310;9.642;2023-02-28T12:27:26;12.25;;;9.98;;
78648;SDS011;67962;47.310;9.642;2023-02-28T12:32:40;14.68;;;10.02;;
78648;SDS011;67962;47.310;9.642;2023-02-28T12:37:39;14.98;;;9.80;;
78648;SDS011;67962;47.310;9.642;2023-02-28T12:40:17;13.05;;;10.30;;
78648;SDS011;67962;47.310;9.642;2023-02-28T12:42:54;14.77;;;10.43;;
78648;SDS011;67962;47.310;9.642;2023-02-28T12:45:40;13.43;;;10.23;;
78648;SDS011;67962;47.310;9.642;2023-02-28T12:48:13;11.68;;;9.32;;
78648;SDS011;67962;47.310;9.642;2023-02-28T12:50:44;11.70;;;9.75;;
78648;SDS011;67962;47.310;9.642;2023-02-28T12:53:23;14.38;;;9.93;;
78648;SDS011;67962;47.310;9.642;2023-02-28T12:56:08;12.32;;;9.23;;
78648;SDS011;67962;47.310;9.642;2023-02-28T12:58:56;12.77;;;9.43;;
78648;SDS011;67962;47.310;9.642;2023-02-28T13:10:05;13.68;;;9.77;;
78648;SDS011;67962;47.310;9.642;2023-02-28T13:12:32;12.85;;;9.57;;
78648;SDS011;67962;47.310;9.642;2023-02-28T13:15:01;12.35;;;9.52;;
78648;SDS011;67962;47.310;9.642;2023-02-28T13:17:38;11.88;;;9.20;;
78648;SDS011;67962;47.310;9.642;2023-02-28T13:20:14;12.25;;;9.18;;
78648;SDS011;67962;47.310;9.642;2023-02-28T13:22:47;14.93;;;9.77;;
78648;SDS011;67962;47.310;9.642;2023-02-28T13:27:58;13.50;;;8.98;;
78648;SDS011;67962;47.310;9.642;2023-02-28T13:38:36;13.02;;;9.85;;
78648;SDS011;67962;47.310;9.642;2023-02-28T13:44:03;12.02;;;9.60;;
78648;SDS011;67962;47.310;9.642;2023-02-28T14:11:43;19.08;;;12.73;;
78648;SDS011;67962;47.310;9.642;2023-02-28T14:17:01;17.55;;;10.52;;
78648;SDS011;67962;47.310;9.642;2023-02-28T14:19:29;13.88;;;9.77;;
78648;SDS011;67962;47.310;9.642;2023-02-28T14:22:17;16.02;;;10.35;;
78648;SDS011;67962;47.310;9.642;2023-02-28T14:25:08;13.27;;;10.32;;
78648;SDS011;67962;47.310;9.642;2023-02-28T14:27:52;14.32;;;10.05;;
78648;SDS011;67962;47.310;9.642;2023-02-28T14:38:52;14.48;;;9.90;;
78648;SDS011;67962;47.310;9.642;2023-02-28T14:41:28;14.05;;;10.48;;
78648;SDS011;67962;47.310;9.642;2023-02-28T14:44:13;13.77;;;9.93;;
78648;SDS011;67962;47.310;9.642;2023-02-28T14:46:39;12.80;;;9.82;;
78648;SDS011;67962;47.310;9.642;2023-02-28T14:49:07;14.52;;;10.40;;
78648;SDS011;67962;47.310;9.642;2023-02-28T14:51:42;12.50;;;9.95;;
78648;SDS011;67962;47.310;9.642;2023-02-28T14:54:12;15.25;;;10.38;;
78648;SDS011;67962;47.310;9.642;2023-02-28T14:56:40;14.23;;;10.40;;
78648;SDS011;67962;47.310;9.642;2023-02-28T14:59:28;14.10;;;10.85;;
78648;SDS011;67962;47.310;9.642;2023-02-28T15:04:54;15.13;;;10.52;;
78648;SDS011;67962;47.310;9.642;2023-02-28T15:07:21;13.75;;;10.27;;
78648;SDS011;67962;47.310;9.642;2023-02-28T15:15:18;13.02;;;9.98;;
78648;SDS011;67962;47.310;9.642;2023-02-28T15:17:46;15.18;;;11.13;;
78648;SDS011;67962;47.310;9.642;2023-02-28T15:20:19;13.40;;;10.27;;
78648;SDS011;67962;47.310;9.642;2023-02-28T15:22:46;12.85;;;10.48;;
78648;SDS011;67962;47.310;9.642;2023-02-28T15:25:14;14.82;;;11.40;;
78648;SDS011;67962;47.310;9.642;2023-02-28T15:27:45;15.70;;;10.52;;
78648;SDS011;67962;47.310;9.642;2023-02-28T15:30:15;15.18;;;10.82;;
78648;SDS011;67962;47.310;9.642;2023-02-28T15:33:06;15.20;;;10.98;;
78648;SDS011;67962;47.310;9.642;2023-02-28T15:35:41;14.93;;;10.63;;
78648;SDS011;67962;47.310;9.642;2023-02-28T15:40:42;18.27;;;12.23;;
78648;SDS011;67962;47.310;9.642;2023-02-28T15:43:31;15.68;;;11.57;;
78648;SDS011;67962;47.310;9.642;2023-02-28T15:48:31;16.70;;;11.75;;
78648;SDS011;67962;47.310;9.642;2023-02-28T15:56:26;15.02;;;11.30;;
78648;SDS011;67962;47.310;9.642;2023-02-28T15:58:57;18.42;;;11.73;;
78648;SDS011;67962;47.310;9.642;2023-02-28T16:01:29;16.00;;;11.25;;
78648;SDS011;67962;47.310;9.642;2023-02-28T16:04:01;18.58;;;11.48;;
78648;SDS011;67962;47.310;9.642;2023-02-28T16:09:23;17.27;;;11.77;;
78648;SDS011;67962;47.310;9.642;2023-02-28T16:11:50;18.33;;;13.20;;
78648;SDS011;67962;47.310;9.642;2023-02-28T16:14:19;17.73;;;11.18;;
78648;SDS011;67962;47.310;9.642;2023-02-28T16:16:49;16.98;;;12.32;;
78648;SDS011;67962;47.310;9.642;2023-02-28T16:19:19;20.20;;;12.82;;
78648;SDS011;67962;47.310;9.642;2023-02-28T16:21:45;17.98;;;12.15;;
78648;SDS011;67962;47.310;9.642;2023-02-28T16:24:11;17.60;;;12.68;;
78648;SDS011;67962;47.310;9.642;2023-02-28T16:26:38;18.25;;;12.38;;
78648;SDS011;67962;47.310;9.642;2023-02-28T16:29:06;21.80;;;12.55;;
78648;SDS011;67962;47.310;9.642;2023-02-28T16:31:34;17.02;;;12.40;;
78648;SDS011;67962;47.310;9.642;2023-02-28T16:34:02;17.17;;;12.68;;
78648;SDS011;67962;47.310;9.642;2023-02-28T16:36:28;18.95;;;13.15;;
78648;SDS011;67962;47.310;9.642;2023-02-28T16:38:54;19.80;;;13.32;;
78648;SDS011;67962;47.310;9.642;2023-02-28T16:41:21;20.60;;;13.43;;
78648;SDS011;67962;47.310;9.642;2023-02-28T16:43:51;16.80;;;12.07;;
78648;SDS011;67962;47.310;9.642;2023-02-28T16:46:19;19.50;;;13.52;;
78648;SDS011;67962;47.310;9.642;2023-02-28T16:48:45;16.50;;;12.27;;
78648;SDS011;67962;47.310;9.642;2023-02-28T16:51:14;26.25;;;13.95;;
78648;SDS011;67962;47.310;9.642;2023-02-28T16:53:41;19.38;;;13.15;;
78648;SDS011;67962;47.310;9.642;2023-02-28T16:59:00;19.23;;;13.30;;
78648;SDS011;67962;47.310;9.642;2023-02-28T17:01:27;23.33;;;13.70;;
78648;SDS011;67962;47.310;9.642;2023-02-28T17:03:54;19.55;;;13.43;;
78648;SDS011;67962;47.310;9.642;2023-02-28T17:06:26;20.15;;;13.23;;
78648;SDS011;67962;47.310;9.642;2023-02-28T17:08:54;20.33;;;14.02;;
78648;SDS011;67962;47.310;9.642;2023-02-28T17:11:20;19.63;;;12.98;;
78648;SDS011;67962;47.310;9.642;2023-02-28T17:13:47;18.23;;;12.98;;
78648;SDS011;67962;47.310;9.642;2023-02-28T17:16:28;16.85;;;12.43;;
78648;SDS011;67962;47.310;9.642;2023-02-28T17:18:56;21.98;;;13.65;;
78648;SDS011;67962;47.310;9.642;2023-02-28T17:21:24;18.98;;;13.43;;
78648;SDS011;67962;47.310;9.642;2023-02-28T17:23:50;24.02;;;13.30;;
78648;SDS011;67962;47.310;9.642;2023-02-28T17:26:17;20.33;;;13.55;;
78648;SDS011;67962;47.310;9.642;2023-02-28T17:28:49;20.95;;;13.98;;
78648;SDS011;67962;47.310;9.642;2023-02-28T17:31:16;19.90;;;14.32;;
78648;SDS011;67962;47.310;9.642;2023-02-28T17:33:43;18.83;;;14.07;;
78648;SDS011;67962;47.310;9.642;2023-02-28T17:36:13;19.60;;;14.10;;
78648;SDS011;67962;47.310;9.642;2023-02-28T17:38:41;20.63;;;13.95;;
78648;SDS011;67962;47.310;9.642;2023-02-28T17:41:10;20.73;;;13.65;;